UAL197 RJAA-PGUM
Flight info
| Callsign | UAL197 |
|---|---|
| Flight time | 3h 6m |
| Altitude | 33000 |
| Route | OLVAN Y823 MERED Y821 DAGDA A337 TEGOD/N0474F340 G205 GUYES |
| Aircraft | B738/M-SDE2E3FGHIRWXY/LB1 |
Departure
| Time | 2026-04-20 18:03 |
|---|---|
| Airport | Narita International Airport (RJAA) |
Arrival
| Time | 2026-04-20 21:09 |
|---|---|
| Airport | Antonio B. Won Pat International Airport (PGUM) |
| Time | Latitude | Longitude | Altitude | Speed | Heading |
|---|---|---|---|---|---|
| 2026-04-20 16:58 | 35.76074 | 140.38460 | 143 ft | 0 kts | 59° |
| 2026-04-20 17:42 | 35.76074 | 140.38461 | 143 ft | 0 kts | 59° |
| 2026-04-20 17:45 | 35.76074 | 140.38460 | 143 ft | 0 kts | 59° |
| 2026-04-20 17:46 | 35.76063 | 140.38437 | 143 ft | 4 kts | 59° |
| 2026-04-20 17:46 | 35.76050 | 140.38408 | 143 ft | 4 kts | 60° |
| 2026-04-20 17:46 | 35.76037 | 140.38382 | 143 ft | 4 kts | 57° |
| 2026-04-20 17:46 | 35.76021 | 140.38362 | 143 ft | 4 kts | 2° |
| 2026-04-20 17:47 | 35.75998 | 140.38370 | 143 ft | 3 kts | 329° |
| 2026-04-20 17:47 | 35.75992 | 140.38375 | 143 ft | 0 kts | 329° |
| 2026-04-20 17:55 | 35.76003 | 140.38367 | 143 ft | 4 kts | 329° |
| 2026-04-20 17:55 | 35.76033 | 140.38344 | 143 ft | 6 kts | 328° |
| 2026-04-20 17:55 | 35.76055 | 140.38305 | 143 ft | 6 kts | 275° |
| 2026-04-20 17:56 | 35.76039 | 140.38250 | 143 ft | 7 kts | 242° |
| 2026-04-20 17:56 | 35.76013 | 140.38193 | 143 ft | 8 kts | 239° |
| 2026-04-20 17:56 | 35.76006 | 140.38133 | 143 ft | 7 kts | 295° |
| 2026-04-20 17:56 | 35.76047 | 140.38090 | 143 ft | 9 kts | 326° |
| 2026-04-20 17:57 | 35.76111 | 140.38045 | 143 ft | 12 kts | 330° |
| 2026-04-20 17:57 | 35.76196 | 140.37985 | 143 ft | 15 kts | 329° |
| 2026-04-20 17:57 | 35.76293 | 140.37914 | 143 ft | 17 kts | 329° |
| 2026-04-20 17:57 | 35.76401 | 140.37836 | 142 ft | 19 kts | 329° |
| 2026-04-20 17:58 | 35.76515 | 140.37754 | 143 ft | 19 kts | 330° |
| 2026-04-20 17:58 | 35.76626 | 140.37674 | 143 ft | 18 kts | 329° |
| 2026-04-20 17:58 | 35.76733 | 140.37597 | 143 ft | 17 kts | 329° |
| 2026-04-20 17:58 | 35.76836 | 140.37522 | 143 ft | 17 kts | 329° |
| 2026-04-20 17:59 | 35.76935 | 140.37451 | 142 ft | 16 kts | 329° |
| 2026-04-20 17:59 | 35.77030 | 140.37382 | 142 ft | 16 kts | 329° |
| 2026-04-20 17:59 | 35.77122 | 140.37315 | 142 ft | 15 kts | 330° |
| 2026-04-20 17:59 | 35.77210 | 140.37252 | 142 ft | 14 kts | 330° |
| 2026-04-20 18:00 | 35.77293 | 140.37193 | 142 ft | 14 kts | 329° |
| 2026-04-20 18:00 | 35.77373 | 140.37134 | 142 ft | 13 kts | 329° |
| 2026-04-20 18:00 | 35.77451 | 140.37078 | 142 ft | 13 kts | 329° |
| 2026-04-20 18:00 | 35.77498 | 140.37011 | 142 ft | 7 kts | 269° |
| 2026-04-20 18:01 | 35.77481 | 140.36955 | 143 ft | 7 kts | 243° |
| 2026-04-20 18:01 | 35.77458 | 140.36903 | 143 ft | 7 kts | 239° |
| 2026-04-20 18:01 | 35.77425 | 140.36863 | 142 ft | 7 kts | 204° |
| 2026-04-20 18:01 | 35.77381 | 140.36873 | 142 ft | 7 kts | 149° |
| 2026-04-20 18:02 | 35.77310 | 140.36924 | 141 ft | 26 kts | 149° |
| 2026-04-20 18:02 | 35.76943 | 140.37188 | 142 ft | 95 kts | 149° |
| 2026-04-20 18:02 | 35.76198 | 140.37724 | 143 ft | 153 kts | 150° |
| 2026-04-20 18:02 | 35.75179 | 140.38438 | 473 ft | 172 kts | 152° |
| 2026-04-20 18:03 | 35.74155 | 140.39136 | 1337 ft | 164 kts | 156° |
| 2026-04-20 18:03 | 35.73188 | 140.39816 | 2213 ft | 160 kts | 156° |
| 2026-04-20 18:03 | 35.72233 | 140.40517 | 2962 ft | 160 kts | 155° |
| 2026-04-20 18:03 | 35.71254 | 140.41245 | 3533 ft | 173 kts | 156° |
| 2026-04-20 18:04 | 35.70126 | 140.42054 | 3754 ft | 200 kts | 155° |
| 2026-04-20 18:04 | 35.68861 | 140.42964 | 3986 ft | 222 kts | 155° |
| 2026-04-20 18:04 | 35.67457 | 140.43980 | 4225 ft | 246 kts | 154° |
| 2026-04-20 18:04 | 35.65951 | 140.45081 | 4856 ft | 255 kts | 154° |
| 2026-04-20 18:05 | 35.62828 | 140.47346 | 6351 ft | 266 kts | 155° |
| 2026-04-20 18:05 | 35.61215 | 140.48512 | 7044 ft | 271 kts | 155° |
| 2026-04-20 18:05 | 35.59588 | 140.49686 | 7740 ft | 276 kts | 155° |
| 2026-04-20 18:06 | 35.57915 | 140.50894 | 8439 ft | 282 kts | 155° |
| 2026-04-20 18:06 | 35.56201 | 140.52126 | 9140 ft | 287 kts | 155° |
| 2026-04-20 18:06 | 35.54459 | 140.53376 | 9840 ft | 292 kts | 155° |
| 2026-04-20 18:06 | 35.52689 | 140.54646 | 10522 ft | 295 kts | 155° |
| 2026-04-20 18:07 | 35.50911 | 140.55924 | 11253 ft | 297 kts | 155° |
| 2026-04-20 18:07 | 35.49124 | 140.57206 | 11957 ft | 299 kts | 155° |
| 2026-04-20 18:07 | 35.47316 | 140.58502 | 12649 ft | 303 kts | 155° |
| 2026-04-20 18:07 | 35.45446 | 140.59837 | 12927 ft | 322 kts | 154° |
| 2026-04-20 18:08 | 35.43457 | 140.61291 | 13098 ft | 344 kts | 149° |
| 2026-04-20 18:08 | 35.41740 | 140.63437 | 13230 ft | 373 kts | 129° |
| 2026-04-20 18:08 | 35.40248 | 140.66150 | 13423 ft | 391 kts | 127° |
| 2026-04-20 18:08 | 35.38727 | 140.68974 | 13833 ft | 400 kts | 127° |
| 2026-04-20 18:09 | 35.37184 | 140.71831 | 14327 ft | 404 kts | 127° |
| 2026-04-20 18:09 | 35.35610 | 140.74714 | 14849 ft | 408 kts | 127° |
| 2026-04-20 18:09 | 35.34028 | 140.77585 | 15328 ft | 413 kts | 127° |
| 2026-04-20 18:09 | 35.32936 | 140.79556 | 15653 ft | 417 kts | 127° |
| 2026-04-20 18:10 | 35.30754 | 140.83476 | 16291 ft | 423 kts | 127° |
| 2026-04-20 18:10 | 35.29625 | 140.85500 | 16584 ft | 427 kts | 127° |
| 2026-04-20 18:10 | 35.27940 | 140.88517 | 17030 ft | 432 kts | 127° |
| 2026-04-20 18:10 | 35.26240 | 140.91562 | 17573 ft | 434 kts | 127° |
| 2026-04-20 18:11 | 35.24550 | 140.94586 | 18038 ft | 439 kts | 127° |
| 2026-04-20 18:11 | 35.22813 | 140.97689 | 18439 ft | 444 kts | 127° |
| 2026-04-20 18:11 | 35.20942 | 141.00689 | 18790 ft | 444 kts | 139° |
| 2026-04-20 18:11 | 35.18473 | 141.02896 | 19177 ft | 438 kts | 158° |
| 2026-04-20 18:12 | 35.15657 | 141.04272 | 19584 ft | 436 kts | 165° |
| 2026-04-20 18:12 | 35.12778 | 141.05494 | 19948 ft | 440 kts | 166° |
| 2026-04-20 18:12 | 35.09863 | 141.06717 | 20331 ft | 444 kts | 166° |
| 2026-04-20 18:12 | 35.06927 | 141.07963 | 20714 ft | 448 kts | 166° |
| 2026-04-20 18:13 | 35.03972 | 141.09235 | 21105 ft | 451 kts | 166° |
| 2026-04-20 18:13 | 35.01002 | 141.10529 | 21472 ft | 455 kts | 166° |
| 2026-04-20 18:13 | 34.98046 | 141.11830 | 21810 ft | 459 kts | 165° |
| 2026-04-20 18:13 | 34.95025 | 141.13158 | 22195 ft | 461 kts | 165° |
| 2026-04-20 18:14 | 34.91996 | 141.14488 | 22567 ft | 464 kts | 165° |
| 2026-04-20 18:14 | 34.88943 | 141.15826 | 22923 ft | 467 kts | 165° |
| 2026-04-20 18:14 | 34.85868 | 141.17174 | 23263 ft | 471 kts | 165° |
| 2026-04-20 18:14 | 34.82780 | 141.18526 | 23572 ft | 474 kts | 165° |
| 2026-04-20 18:15 | 34.79665 | 141.19888 | 23842 ft | 477 kts | 166° |
| 2026-04-20 18:15 | 34.76534 | 141.21253 | 24145 ft | 478 kts | 166° |
| 2026-04-20 18:15 | 34.73388 | 141.22619 | 24476 ft | 479 kts | 166° |
| 2026-04-20 18:15 | 34.70241 | 141.23982 | 24785 ft | 481 kts | 166° |
| 2026-04-20 18:16 | 34.67083 | 141.25349 | 25081 ft | 483 kts | 166° |
| 2026-04-20 18:16 | 34.63945 | 141.26707 | 25318 ft | 486 kts | 166° |
| 2026-04-20 18:16 | 34.60750 | 141.28092 | 25577 ft | 488 kts | 166° |
| 2026-04-20 18:16 | 34.57551 | 141.29482 | 25871 ft | 490 kts | 166° |
| 2026-04-20 18:17 | 34.54336 | 141.30880 | 26185 ft | 491 kts | 166° |
| 2026-04-20 18:17 | 34.51107 | 141.32284 | 26476 ft | 492 kts | 166° |
| 2026-04-20 18:17 | 34.47865 | 141.33692 | 26723 ft | 494 kts | 166° |
| 2026-04-20 18:17 | 34.44611 | 141.35102 | 26965 ft | 497 kts | 166° |
| 2026-04-20 18:18 | 34.41351 | 141.36514 | 27214 ft | 498 kts | 166° |
| 2026-04-20 18:18 | 34.38112 | 141.37917 | 27479 ft | 500 kts | 166° |
| 2026-04-20 18:18 | 34.34826 | 141.39339 | 27731 ft | 501 kts | 166° |
| 2026-04-20 18:18 | 34.31534 | 141.40762 | 27973 ft | 503 kts | 166° |
| 2026-04-20 18:19 | 34.28240 | 141.42234 | 28232 ft | 507 kts | 161° |
| 2026-04-20 18:19 | 34.25146 | 141.44382 | 28522 ft | 518 kts | 147° |
| 2026-04-20 18:19 | 34.22520 | 141.47311 | 28927 ft | 523 kts | 134° |
| 2026-04-20 18:19 | 34.20417 | 141.50910 | 29325 ft | 527 kts | 121° |
| 2026-04-20 18:20 | 34.18672 | 141.54802 | 29696 ft | 526 kts | 120° |
| 2026-04-20 18:20 | 34.16955 | 141.58715 | 29955 ft | 527 kts | 120° |
| 2026-04-20 18:20 | 34.15227 | 141.62629 | 30237 ft | 528 kts | 120° |
| 2026-04-20 18:20 | 34.13480 | 141.66527 | 30528 ft | 527 kts | 120° |
| 2026-04-20 18:21 | 34.11718 | 141.70398 | 30826 ft | 526 kts | 121° |
| 2026-04-20 18:21 | 34.09958 | 141.74222 | 31081 ft | 527 kts | 121° |
| 2026-04-20 18:21 | 34.08169 | 141.78087 | 31336 ft | 527 kts | 121° |
| 2026-04-20 18:21 | 34.06378 | 141.81947 | 31618 ft | 527 kts | 121° |
| 2026-04-20 18:22 | 34.04593 | 141.85793 | 31945 ft | 525 kts | 120° |
| 2026-04-20 18:22 | 34.02809 | 141.89636 | 32238 ft | 524 kts | 120° |
| 2026-04-20 18:22 | 34.01023 | 141.93484 | 32462 ft | 525 kts | 120° |
| 2026-04-20 18:22 | 33.99235 | 141.97333 | 32678 ft | 526 kts | 120° |
| 2026-04-20 18:23 | 33.97444 | 142.01185 | 32947 ft | 526 kts | 120° |
| 2026-04-20 18:23 | 33.95655 | 142.05029 | 33239 ft | 525 kts | 120° |
| 2026-04-20 18:23 | 33.93867 | 142.08867 | 33475 ft | 525 kts | 120° |
| 2026-04-20 18:23 | 33.92079 | 142.12702 | 33683 ft | 526 kts | 120° |
| 2026-04-20 18:24 | 33.90283 | 142.16549 | 33917 ft | 526 kts | 120° |
| 2026-04-20 18:24 | 33.88497 | 142.20332 | 34153 ft | 526 kts | 120° |
| 2026-04-20 18:24 | 33.86679 | 142.24145 | 34409 ft | 524 kts | 120° |
| 2026-04-20 18:24 | 33.84864 | 142.27947 | 34662 ft | 523 kts | 121° |
| 2026-04-20 18:25 | 33.82751 | 142.31494 | 34821 ft | 521 kts | 137° |
| 2026-04-20 18:25 | 33.79951 | 142.34198 | 34933 ft | 515 kts | 153° |
| 2026-04-20 18:25 | 33.76737 | 142.36004 | 34997 ft | 507 kts | 169° |
| 2026-04-20 18:25 | 33.73321 | 142.36887 | 35037 ft | 501 kts | 176° |
| 2026-04-20 18:26 | 33.66419 | 142.38273 | 35015 ft | 503 kts | 176° |
| 2026-04-20 18:26 | 33.59514 | 142.39722 | 35002 ft | 504 kts | 175° |
| 2026-04-20 18:27 | 33.52616 | 142.41236 | 35004 ft | 504 kts | 175° |
| 2026-04-20 18:27 | 33.45759 | 142.42764 | 35011 ft | 504 kts | 175° |
| 2026-04-20 18:28 | 33.38848 | 142.44303 | 35005 ft | 504 kts | 175° |
| 2026-04-20 18:28 | 33.31950 | 142.45832 | 35012 ft | 504 kts | 175° |
| 2026-04-20 18:29 | 33.25044 | 142.47358 | 35012 ft | 504 kts | 175° |
| 2026-04-20 18:29 | 33.18194 | 142.48869 | 35007 ft | 503 kts | 175° |
| 2026-04-20 18:30 | 33.11305 | 142.50386 | 35013 ft | 503 kts | 175° |
| 2026-04-20 18:30 | 33.04401 | 142.51904 | 34992 ft | 503 kts | 175° |
| 2026-04-20 18:31 | 32.97510 | 142.53419 | 35016 ft | 504 kts | 175° |
| 2026-04-20 18:31 | 32.90602 | 142.54932 | 35015 ft | 504 kts | 175° |
| 2026-04-20 18:32 | 32.83742 | 142.56433 | 35001 ft | 505 kts | 175° |
| 2026-04-20 18:32 | 32.76834 | 142.57942 | 35014 ft | 505 kts | 175° |
| 2026-04-20 18:33 | 32.69915 | 142.59451 | 35012 ft | 505 kts | 175° |
| 2026-04-20 18:33 | 32.62995 | 142.60959 | 35016 ft | 506 kts | 175° |
| 2026-04-20 18:34 | 32.56056 | 142.62468 | 35014 ft | 506 kts | 175° |
| 2026-04-20 18:34 | 32.49119 | 142.63974 | 35013 ft | 507 kts | 175° |
| 2026-04-20 18:35 | 32.42182 | 142.65478 | 35000 ft | 507 kts | 175° |
| 2026-04-20 18:35 | 32.35279 | 142.66973 | 35013 ft | 507 kts | 175° |
| 2026-04-20 18:36 | 32.28328 | 142.68475 | 35018 ft | 507 kts | 175° |
| 2026-04-20 18:36 | 32.21384 | 142.69974 | 35007 ft | 507 kts | 175° |
| 2026-04-20 18:37 | 32.14428 | 142.71472 | 35016 ft | 507 kts | 175° |
| 2026-04-20 18:37 | 32.07527 | 142.72957 | 35008 ft | 508 kts | 175° |
| 2026-04-20 18:38 | 32.00552 | 142.74455 | 35004 ft | 508 kts | 174° |
| 2026-04-20 18:38 | 31.93597 | 142.75947 | 35013 ft | 508 kts | 174° |
| 2026-04-20 18:39 | 31.86672 | 142.77430 | 35023 ft | 508 kts | 174° |
| 2026-04-20 18:39 | 31.79700 | 142.78920 | 35007 ft | 508 kts | 174° |
| 2026-04-20 18:40 | 31.72753 | 142.80404 | 35011 ft | 507 kts | 174° |
| 2026-04-20 18:40 | 31.65808 | 142.81884 | 35014 ft | 507 kts | 174° |
| 2026-04-20 18:41 | 31.58906 | 142.83353 | 35009 ft | 506 kts | 174° |
| 2026-04-20 18:41 | 31.51962 | 142.84829 | 35014 ft | 506 kts | 174° |
| 2026-04-20 18:42 | 31.45037 | 142.86298 | 35013 ft | 505 kts | 174° |
| 2026-04-20 18:42 | 31.38111 | 142.87765 | 35007 ft | 505 kts | 174° |
| 2026-04-20 18:43 | 31.31231 | 142.89221 | 35016 ft | 505 kts | 174° |
| 2026-04-20 18:43 | 31.24313 | 142.90682 | 35012 ft | 505 kts | 174° |
| 2026-04-20 18:44 | 31.17369 | 142.92146 | 35007 ft | 505 kts | 174° |
| 2026-04-20 18:44 | 31.10442 | 142.93605 | 35012 ft | 506 kts | 174° |
| 2026-04-20 18:45 | 31.03510 | 142.95063 | 35008 ft | 506 kts | 174° |
| 2026-04-20 18:45 | 30.96619 | 142.96510 | 35004 ft | 507 kts | 174° |
| 2026-04-20 18:46 | 30.89678 | 142.97965 | 35010 ft | 507 kts | 174° |
| 2026-04-20 18:46 | 30.82720 | 142.99422 | 35008 ft | 508 kts | 174° |
| 2026-04-20 18:47 | 30.75767 | 143.00876 | 35018 ft | 508 kts | 174° |
| 2026-04-20 18:47 | 30.68799 | 143.02330 | 35010 ft | 508 kts | 174° |
| 2026-04-20 18:48 | 30.61873 | 143.03774 | 35005 ft | 509 kts | 174° |
| 2026-04-20 18:48 | 30.54895 | 143.05227 | 35006 ft | 509 kts | 174° |
| 2026-04-20 18:49 | 30.47923 | 143.06676 | 35005 ft | 509 kts | 174° |
| 2026-04-20 18:49 | 30.40952 | 143.08123 | 35005 ft | 509 kts | 174° |
| 2026-04-20 18:50 | 30.33984 | 143.09567 | 34997 ft | 508 kts | 174° |
| 2026-04-20 18:50 | 30.27061 | 143.11000 | 35004 ft | 507 kts | 174° |
| 2026-04-20 18:51 | 30.20110 | 143.12437 | 35002 ft | 507 kts | 174° |
| 2026-04-20 18:51 | 30.13162 | 143.13870 | 34998 ft | 506 kts | 174° |
| 2026-04-20 18:52 | 30.06223 | 143.15301 | 34997 ft | 506 kts | 174° |
| 2026-04-20 18:52 | 29.99331 | 143.16724 | 34996 ft | 506 kts | 174° |
| 2026-04-20 18:53 | 29.92424 | 143.18361 | 34987 ft | 506 kts | 172° |
| 2026-04-20 18:53 | 29.85529 | 143.20112 | 34991 ft | 506 kts | 172° |
| 2026-04-20 18:54 | 29.78684 | 143.21832 | 34997 ft | 506 kts | 172° |
| 2026-04-20 18:54 | 29.71794 | 143.23532 | 34986 ft | 506 kts | 173° |
| 2026-04-20 18:55 | 29.64900 | 143.25219 | 34998 ft | 506 kts | 173° |
| 2026-04-20 18:55 | 29.58015 | 143.26899 | 34997 ft | 506 kts | 173° |
| 2026-04-20 18:56 | 29.52290 | 143.28297 | 34966 ft | 506 kts | 173° |
| 2026-04-20 18:56 | 29.44294 | 143.30247 | 34980 ft | 505 kts | 173° |
| 2026-04-20 18:57 | 29.37411 | 143.31924 | 34989 ft | 505 kts | 173° |
| 2026-04-20 18:57 | 29.30537 | 143.33595 | 34973 ft | 504 kts | 173° |
| 2026-04-20 18:58 | 29.24831 | 143.34981 | 34979 ft | 504 kts | 173° |
| 2026-04-20 18:58 | 29.17971 | 143.36645 | 34981 ft | 503 kts | 173° |
| 2026-04-20 18:59 | 29.11118 | 143.38306 | 34980 ft | 503 kts | 173° |
| 2026-04-20 18:59 | 29.04264 | 143.39964 | 34976 ft | 502 kts | 173° |
| 2026-04-20 19:00 | 28.97420 | 143.41618 | 34978 ft | 502 kts | 173° |
| 2026-04-20 19:00 | 28.90616 | 143.43259 | 34978 ft | 502 kts | 173° |
| 2026-04-20 19:01 | 28.83780 | 143.44905 | 34971 ft | 501 kts | 173° |
| 2026-04-20 19:01 | 28.76955 | 143.46548 | 34975 ft | 501 kts | 173° |
| 2026-04-20 19:02 | 28.70126 | 143.48189 | 34972 ft | 501 kts | 173° |
| 2026-04-20 19:02 | 28.63308 | 143.49824 | 34963 ft | 500 kts | 173° |
| 2026-04-20 19:03 | 28.56498 | 143.51456 | 34968 ft | 500 kts | 173° |
| 2026-04-20 19:03 | 28.49742 | 143.53074 | 34968 ft | 499 kts | 173° |
| 2026-04-20 19:04 | 28.42954 | 143.54697 | 34967 ft | 498 kts | 173° |
| 2026-04-20 19:04 | 28.36171 | 143.56316 | 34966 ft | 497 kts | 173° |
| 2026-04-20 19:05 | 28.29400 | 143.57930 | 34966 ft | 497 kts | 173° |
| 2026-04-20 19:05 | 28.22631 | 143.59542 | 34967 ft | 496 kts | 173° |
| 2026-04-20 19:06 | 28.15867 | 143.61150 | 34957 ft | 495 kts | 174° |
| 2026-04-20 19:06 | 28.09117 | 143.62753 | 34966 ft | 495 kts | 174° |
| 2026-04-20 19:07 | 28.02381 | 143.64350 | 34965 ft | 495 kts | 174° |
| 2026-04-20 19:07 | 27.95686 | 143.65936 | 34962 ft | 494 kts | 174° |
| 2026-04-20 19:08 | 27.85599 | 143.68322 | 34960 ft | 492 kts | 174° |
| 2026-04-20 19:09 | 27.78895 | 143.69906 | 34962 ft | 491 kts | 174° |
| 2026-04-20 19:09 | 27.72248 | 143.71473 | 34960 ft | 490 kts | 174° |
| 2026-04-20 19:10 | 27.65579 | 143.73044 | 34961 ft | 489 kts | 174° |
| 2026-04-20 19:10 | 27.58921 | 143.74610 | 34969 ft | 489 kts | 174° |
| 2026-04-20 19:11 | 27.52258 | 143.76175 | 34961 ft | 488 kts | 175° |
| 2026-04-20 19:11 | 27.45625 | 143.77732 | 34965 ft | 486 kts | 175° |
| 2026-04-20 19:12 | 27.39037 | 143.79277 | 34969 ft | 485 kts | 175° |
| 2026-04-20 19:12 | 27.32435 | 143.80822 | 34968 ft | 483 kts | 175° |
| 2026-04-20 19:13 | 27.25855 | 143.82360 | 34960 ft | 482 kts | 175° |
| 2026-04-20 19:13 | 27.19298 | 143.83892 | 34971 ft | 480 kts | 175° |
| 2026-04-20 19:14 | 27.12754 | 143.85418 | 34975 ft | 479 kts | 175° |
| 2026-04-20 19:14 | 27.06269 | 143.86928 | 34965 ft | 478 kts | 176° |
| 2026-04-20 19:15 | 26.99750 | 143.88446 | 34966 ft | 478 kts | 176° |
| 2026-04-20 19:15 | 26.93240 | 143.89958 | 34975 ft | 477 kts | 176° |
| 2026-04-20 19:16 | 26.86737 | 143.91468 | 34972 ft | 477 kts | 176° |
| 2026-04-20 19:16 | 26.80241 | 143.92973 | 34974 ft | 476 kts | 176° |
| 2026-04-20 19:17 | 26.73754 | 143.94476 | 34978 ft | 476 kts | 176° |
| 2026-04-20 19:17 | 26.67262 | 143.95978 | 34978 ft | 476 kts | 176° |
| 2026-04-20 19:18 | 26.60774 | 143.97477 | 34957 ft | 475 kts | 176° |
| 2026-04-20 19:18 | 26.54336 | 143.98963 | 34966 ft | 475 kts | 176° |
| 2026-04-20 19:19 | 26.47863 | 144.00455 | 34975 ft | 474 kts | 176° |
| 2026-04-20 19:19 | 26.41396 | 144.01944 | 34975 ft | 474 kts | 176° |
| 2026-04-20 19:20 | 26.34938 | 144.03429 | 34972 ft | 473 kts | 177° |
| 2026-04-20 19:20 | 26.28533 | 144.04901 | 34976 ft | 473 kts | 177° |
| 2026-04-20 19:21 | 26.22072 | 144.06384 | 34978 ft | 472 kts | 177° |
| 2026-04-20 19:21 | 26.15636 | 144.07859 | 34978 ft | 472 kts | 177° |
| 2026-04-20 19:22 | 26.09207 | 144.09331 | 34982 ft | 472 kts | 177° |
| 2026-04-20 19:22 | 26.02806 | 144.10794 | 34980 ft | 472 kts | 177° |
| 2026-04-20 19:23 | 25.96379 | 144.12263 | 34977 ft | 471 kts | 177° |
| 2026-04-20 19:23 | 25.89949 | 144.13730 | 34973 ft | 471 kts | 177° |
| 2026-04-20 19:24 | 25.83532 | 144.15193 | 34977 ft | 470 kts | 177° |
| 2026-04-20 19:24 | 25.77116 | 144.16654 | 34982 ft | 470 kts | 177° |
| 2026-04-20 19:25 | 25.70693 | 144.18115 | 34975 ft | 470 kts | 177° |
| 2026-04-20 19:25 | 25.64325 | 144.19561 | 34976 ft | 470 kts | 177° |
| 2026-04-20 19:26 | 25.57916 | 144.21016 | 34980 ft | 470 kts | 177° |
| 2026-04-20 19:26 | 25.51514 | 144.22467 | 34985 ft | 470 kts | 177° |
| 2026-04-20 19:27 | 25.45102 | 144.23919 | 34956 ft | 470 kts | 177° |
| 2026-04-20 19:27 | 25.38697 | 144.25367 | 34981 ft | 470 kts | 177° |
| 2026-04-20 19:28 | 25.32289 | 144.26815 | 34984 ft | 470 kts | 177° |
| 2026-04-20 19:28 | 25.25875 | 144.28263 | 34985 ft | 470 kts | 177° |
| 2026-04-20 19:29 | 25.19485 | 144.29704 | 34969 ft | 471 kts | 176° |
| 2026-04-20 19:29 | 25.13068 | 144.31150 | 34978 ft | 471 kts | 176° |
| 2026-04-20 19:30 | 25.06638 | 144.32597 | 34988 ft | 471 kts | 176° |
| 2026-04-20 19:30 | 25.00192 | 144.34046 | 34987 ft | 472 kts | 176° |
| 2026-04-20 19:31 | 24.93790 | 144.35465 | 34979 ft | 472 kts | 176° |
| 2026-04-20 19:31 | 24.87337 | 144.36882 | 34980 ft | 473 kts | 176° |
| 2026-04-20 19:32 | 24.80871 | 144.38302 | 34986 ft | 474 kts | 176° |
| 2026-04-20 19:32 | 24.74434 | 144.39716 | 34985 ft | 475 kts | 176° |
| 2026-04-20 19:33 | 24.67943 | 144.41143 | 34979 ft | 475 kts | 176° |
| 2026-04-20 19:33 | 24.61445 | 144.42570 | 34987 ft | 476 kts | 176° |
| 2026-04-20 19:34 | 24.54944 | 144.43995 | 34986 ft | 477 kts | 176° |
| 2026-04-20 19:34 | 24.48427 | 144.45423 | 34961 ft | 477 kts | 176° |
| 2026-04-20 19:35 | 24.41945 | 144.46841 | 34982 ft | 478 kts | 176° |
| 2026-04-20 19:35 | 24.35417 | 144.48268 | 34991 ft | 478 kts | 176° |
| 2026-04-20 19:36 | 24.28882 | 144.49695 | 34987 ft | 479 kts | 176° |
| 2026-04-20 19:36 | 24.22340 | 144.51122 | 34976 ft | 479 kts | 176° |
| 2026-04-20 19:37 | 24.15800 | 144.52547 | 34989 ft | 479 kts | 176° |
| 2026-04-20 19:37 | 24.09308 | 144.53961 | 34989 ft | 479 kts | 176° |
| 2026-04-20 19:38 | 24.02767 | 144.55383 | 34988 ft | 479 kts | 176° |
| 2026-04-20 19:38 | 23.96233 | 144.56803 | 34983 ft | 478 kts | 175° |
| 2026-04-20 19:39 | 23.89704 | 144.58219 | 34985 ft | 478 kts | 175° |
| 2026-04-20 19:39 | 23.83184 | 144.59632 | 34991 ft | 478 kts | 175° |
| 2026-04-20 19:40 | 23.76658 | 144.61045 | 34991 ft | 478 kts | 175° |
| 2026-04-20 19:40 | 23.70163 | 144.62450 | 34985 ft | 478 kts | 175° |
| 2026-04-20 19:41 | 23.63621 | 144.63864 | 34993 ft | 478 kts | 175° |
| 2026-04-20 19:41 | 23.57083 | 144.65275 | 34991 ft | 478 kts | 175° |
| 2026-04-20 19:42 | 23.50548 | 144.66685 | 34972 ft | 479 kts | 175° |
| 2026-04-20 19:42 | 23.44008 | 144.68094 | 34986 ft | 479 kts | 175° |
| 2026-04-20 19:43 | 23.37476 | 144.69500 | 34993 ft | 479 kts | 175° |
| 2026-04-20 19:43 | 23.30976 | 144.70897 | 34991 ft | 479 kts | 175° |
| 2026-04-20 19:44 | 23.24434 | 144.72302 | 34971 ft | 479 kts | 175° |
| 2026-04-20 19:44 | 23.17894 | 144.73706 | 34985 ft | 479 kts | 175° |
| 2026-04-20 19:45 | 23.11353 | 144.75108 | 34988 ft | 479 kts | 175° |
| 2026-04-20 19:45 | 23.04808 | 144.76510 | 34991 ft | 479 kts | 175° |
| 2026-04-20 19:46 | 22.98253 | 144.77912 | 34976 ft | 479 kts | 175° |
| 2026-04-20 19:46 | 22.91753 | 144.79302 | 34987 ft | 479 kts | 175° |
| 2026-04-20 19:47 | 22.85210 | 144.80699 | 34986 ft | 479 kts | 175° |
| 2026-04-20 19:47 | 22.78664 | 144.82095 | 34987 ft | 479 kts | 175° |
| 2026-04-20 19:48 | 22.72127 | 144.83488 | 34976 ft | 479 kts | 175° |
| 2026-04-20 19:48 | 22.66697 | 144.84645 | 34985 ft | 479 kts | 175° |
| 2026-04-20 19:49 | 22.60150 | 144.86037 | 34987 ft | 479 kts | 175° |
| 2026-04-20 19:49 | 22.52546 | 144.87653 | 34987 ft | 479 kts | 175° |
| 2026-04-20 19:50 | 22.46003 | 144.89042 | 34982 ft | 479 kts | 174° |
| 2026-04-20 19:50 | 22.40558 | 144.90197 | 34987 ft | 479 kts | 174° |
| 2026-04-20 19:51 | 22.33983 | 144.91590 | 34986 ft | 480 kts | 174° |
| 2026-04-20 19:51 | 22.27431 | 144.92977 | 34983 ft | 480 kts | 174° |
| 2026-04-20 19:52 | 22.20906 | 144.94358 | 34972 ft | 480 kts | 174° |
| 2026-04-20 19:52 | 22.14342 | 144.95745 | 34986 ft | 481 kts | 174° |
| 2026-04-20 19:53 | 22.07765 | 144.97133 | 34978 ft | 481 kts | 174° |
| 2026-04-20 19:53 | 22.01190 | 144.98519 | 34978 ft | 481 kts | 174° |
| 2026-04-20 19:54 | 21.94607 | 144.99906 | 34973 ft | 482 kts | 174° |
| 2026-04-20 19:54 | 21.88020 | 145.01293 | 34983 ft | 482 kts | 174° |
| 2026-04-20 19:55 | 21.81431 | 145.02678 | 34979 ft | 482 kts | 174° |
| 2026-04-20 19:55 | 21.74878 | 145.04055 | 34977 ft | 482 kts | 174° |
| 2026-04-20 19:56 | 21.68289 | 145.05439 | 34975 ft | 482 kts | 173° |
| 2026-04-20 19:56 | 21.61698 | 145.06821 | 34984 ft | 482 kts | 173° |
| 2026-04-20 19:57 | 21.55115 | 145.08200 | 34981 ft | 482 kts | 173° |
| 2026-04-20 19:57 | 21.48563 | 145.09572 | 34975 ft | 481 kts | 173° |
| 2026-04-20 19:58 | 21.41986 | 145.10947 | 34984 ft | 481 kts | 173° |
| 2026-04-20 19:58 | 21.35403 | 145.12323 | 34988 ft | 481 kts | 173° |
| 2026-04-20 19:59 | 21.28812 | 145.13699 | 34986 ft | 482 kts | 173° |
| 2026-04-20 19:59 | 21.22264 | 145.15064 | 34987 ft | 482 kts | 173° |
| 2026-04-20 20:00 | 21.15669 | 145.16439 | 34986 ft | 482 kts | 173° |
| 2026-04-20 20:00 | 21.09082 | 145.17810 | 34990 ft | 482 kts | 173° |
| 2026-04-20 20:01 | 21.02477 | 145.19184 | 34987 ft | 483 kts | 173° |
| 2026-04-20 20:01 | 20.95852 | 145.19578 | 34981 ft | 474 kts | 187° |
| 2026-04-20 20:02 | 20.89317 | 145.19080 | 34978 ft | 474 kts | 188° |
| 2026-04-20 20:02 | 20.82740 | 145.18576 | 34981 ft | 474 kts | 188° |
| 2026-04-20 20:03 | 20.76145 | 145.18113 | 34980 ft | 475 kts | 187° |
| 2026-04-20 20:03 | 20.69582 | 145.17676 | 34981 ft | 475 kts | 187° |
| 2026-04-20 20:04 | 20.62987 | 145.17242 | 34980 ft | 475 kts | 187° |
| 2026-04-20 20:04 | 20.56379 | 145.16806 | 34980 ft | 475 kts | 187° |
| 2026-04-20 20:05 | 20.49779 | 145.16370 | 34984 ft | 474 kts | 187° |
| 2026-04-20 20:05 | 20.43183 | 145.15934 | 34984 ft | 474 kts | 187° |
| 2026-04-20 20:06 | 20.36633 | 145.15502 | 34978 ft | 474 kts | 187° |
| 2026-04-20 20:06 | 20.30042 | 145.15067 | 34983 ft | 473 kts | 187° |
| 2026-04-20 20:07 | 20.23469 | 145.14634 | 34984 ft | 473 kts | 187° |
| 2026-04-20 20:07 | 20.16950 | 145.14205 | 34980 ft | 472 kts | 187° |
| 2026-04-20 20:08 | 20.10384 | 145.13773 | 34977 ft | 472 kts | 187° |
| 2026-04-20 20:08 | 20.03831 | 145.13342 | 34981 ft | 471 kts | 187° |
| 2026-04-20 20:09 | 19.97277 | 145.12911 | 34983 ft | 471 kts | 187° |
| 2026-04-20 20:09 | 19.90731 | 145.12481 | 34984 ft | 471 kts | 187° |
| 2026-04-20 20:10 | 19.84177 | 145.12052 | 34975 ft | 471 kts | 187° |
| 2026-04-20 20:10 | 19.77670 | 145.11625 | 34981 ft | 471 kts | 187° |
| 2026-04-20 20:11 | 19.71131 | 145.11197 | 34980 ft | 471 kts | 187° |
| 2026-04-20 20:11 | 19.64578 | 145.10768 | 34981 ft | 471 kts | 187° |
| 2026-04-20 20:12 | 19.58029 | 145.10340 | 34979 ft | 471 kts | 187° |
| 2026-04-20 20:12 | 19.51480 | 145.09913 | 34980 ft | 471 kts | 187° |
| 2026-04-20 20:13 | 19.41691 | 145.09274 | 34983 ft | 472 kts | 187° |
| 2026-04-20 20:13 | 19.35137 | 145.08847 | 34979 ft | 472 kts | 187° |
| 2026-04-20 20:14 | 19.28570 | 145.08419 | 34979 ft | 472 kts | 187° |
| 2026-04-20 20:14 | 19.22003 | 145.07992 | 34981 ft | 472 kts | 186° |
| 2026-04-20 20:15 | 19.15441 | 145.07565 | 34975 ft | 472 kts | 186° |
| 2026-04-20 20:15 | 19.08870 | 145.07138 | 34979 ft | 473 kts | 186° |
| 2026-04-20 20:16 | 19.02352 | 145.06715 | 34982 ft | 473 kts | 186° |
| 2026-04-20 20:16 | 18.95773 | 145.06288 | 34976 ft | 473 kts | 186° |
| 2026-04-20 20:17 | 18.89202 | 145.05862 | 34977 ft | 473 kts | 186° |
| 2026-04-20 20:17 | 18.82636 | 145.05437 | 34975 ft | 473 kts | 186° |
| 2026-04-20 20:18 | 18.76100 | 145.05014 | 34979 ft | 473 kts | 186° |
| 2026-04-20 20:18 | 18.69526 | 145.04589 | 34969 ft | 473 kts | 186° |
| 2026-04-20 20:19 | 18.62963 | 145.04165 | 34973 ft | 473 kts | 186° |
| 2026-04-20 20:19 | 18.56382 | 145.03740 | 34977 ft | 473 kts | 186° |
| 2026-04-20 20:20 | 18.49846 | 145.03318 | 34977 ft | 473 kts | 186° |
| 2026-04-20 20:20 | 18.43269 | 145.02894 | 34974 ft | 473 kts | 186° |
| 2026-04-20 20:21 | 18.36690 | 145.02470 | 34971 ft | 473 kts | 186° |
| 2026-04-20 20:21 | 18.30112 | 145.02047 | 34973 ft | 473 kts | 186° |
| 2026-04-20 20:22 | 18.23525 | 145.01623 | 34973 ft | 474 kts | 186° |
| 2026-04-20 20:22 | 18.16939 | 145.01200 | 34973 ft | 474 kts | 186° |
| 2026-04-20 20:23 | 18.10395 | 145.00780 | 34966 ft | 474 kts | 186° |
| 2026-04-20 20:23 | 18.03808 | 145.00357 | 34974 ft | 474 kts | 186° |
| 2026-04-20 20:24 | 17.97214 | 144.99934 | 34972 ft | 474 kts | 186° |
| 2026-04-20 20:24 | 17.90622 | 144.99512 | 34969 ft | 474 kts | 186° |
| 2026-04-20 20:25 | 17.84030 | 144.99089 | 34966 ft | 474 kts | 186° |
| 2026-04-20 20:25 | 17.77478 | 144.98670 | 34974 ft | 474 kts | 186° |
| 2026-04-20 20:26 | 17.70881 | 144.98249 | 34972 ft | 475 kts | 186° |
| 2026-04-20 20:26 | 17.64281 | 144.97848 | 34973 ft | 475 kts | 186° |
| 2026-04-20 20:27 | 17.57671 | 144.97457 | 34973 ft | 475 kts | 186° |
| 2026-04-20 20:27 | 17.51061 | 144.97064 | 34969 ft | 476 kts | 185° |
| 2026-04-20 20:28 | 17.44447 | 144.96670 | 34974 ft | 476 kts | 185° |
| 2026-04-20 20:28 | 17.37851 | 144.96276 | 34973 ft | 477 kts | 185° |
| 2026-04-20 20:29 | 17.31221 | 144.95880 | 34973 ft | 477 kts | 185° |
| 2026-04-20 20:29 | 17.24595 | 144.95484 | 34970 ft | 477 kts | 185° |
| 2026-04-20 20:30 | 17.17959 | 144.95089 | 34976 ft | 477 kts | 185° |
| 2026-04-20 20:30 | 17.11319 | 144.94693 | 34975 ft | 478 kts | 185° |
| 2026-04-20 20:31 | 17.04674 | 144.94297 | 34974 ft | 478 kts | 185° |
| 2026-04-20 20:31 | 16.98022 | 144.93902 | 34967 ft | 478 kts | 185° |
| 2026-04-20 20:32 | 16.91414 | 144.93509 | 34975 ft | 478 kts | 185° |
| 2026-04-20 20:32 | 16.84766 | 144.93114 | 34976 ft | 479 kts | 185° |
| 2026-04-20 20:33 | 16.79185 | 144.92782 | 34976 ft | 479 kts | 185° |
| 2026-04-20 20:33 | 16.72565 | 144.92390 | 34973 ft | 479 kts | 185° |
| 2026-04-20 20:34 | 16.65902 | 144.91994 | 34970 ft | 480 kts | 185° |
| 2026-04-20 20:34 | 16.59234 | 144.91599 | 34974 ft | 480 kts | 185° |
| 2026-04-20 20:35 | 16.52550 | 144.91204 | 34972 ft | 480 kts | 185° |
| 2026-04-20 20:35 | 16.45920 | 144.90811 | 34973 ft | 480 kts | 185° |
| 2026-04-20 20:36 | 16.39245 | 144.90417 | 34964 ft | 480 kts | 185° |
| 2026-04-20 20:36 | 16.32565 | 144.90022 | 34971 ft | 480 kts | 185° |
| 2026-04-20 20:37 | 16.25920 | 144.89629 | 34972 ft | 481 kts | 185° |
| 2026-04-20 20:37 | 16.19233 | 144.89235 | 34971 ft | 481 kts | 185° |
| 2026-04-20 20:38 | 16.12545 | 144.88841 | 34970 ft | 481 kts | 185° |
| 2026-04-20 20:38 | 16.05856 | 144.88446 | 34969 ft | 481 kts | 184° |
| 2026-04-20 20:39 | 15.99175 | 144.88053 | 34970 ft | 481 kts | 184° |
| 2026-04-20 20:39 | 15.92491 | 144.87659 | 34970 ft | 481 kts | 184° |
| 2026-04-20 20:40 | 15.85807 | 144.87266 | 34970 ft | 481 kts | 184° |
| 2026-04-20 20:40 | 15.79163 | 144.86876 | 34970 ft | 481 kts | 184° |
| 2026-04-20 20:41 | 15.72487 | 144.86484 | 34972 ft | 480 kts | 184° |
| 2026-04-20 20:41 | 15.65801 | 144.86091 | 34973 ft | 480 kts | 184° |
| 2026-04-20 20:42 | 15.59160 | 144.85702 | 34969 ft | 480 kts | 184° |
| 2026-04-20 20:42 | 15.52478 | 144.85310 | 34970 ft | 480 kts | 184° |
| 2026-04-20 20:43 | 15.45808 | 144.84919 | 34970 ft | 480 kts | 184° |
| 2026-04-20 20:43 | 15.39138 | 144.84529 | 34970 ft | 480 kts | 184° |
| 2026-04-20 20:44 | 15.32475 | 144.84139 | 34969 ft | 480 kts | 184° |
| 2026-04-20 20:44 | 15.25854 | 144.83751 | 34970 ft | 479 kts | 184° |
| 2026-04-20 20:45 | 15.19168 | 144.83360 | 34496 ft | 486 kts | 184° |
| 2026-04-20 20:45 | 15.15790 | 144.83161 | 33910 ft | 485 kts | 185° |
| 2026-04-20 20:45 | 15.12404 | 144.82712 | 33208 ft | 494 kts | 193° |
| 2026-04-20 20:46 | 15.09134 | 144.81707 | 32650 ft | 488 kts | 201° |
| 2026-04-20 20:46 | 15.05952 | 144.80476 | 31731 ft | 489 kts | 201° |
| 2026-04-20 20:46 | 15.02762 | 144.79246 | 31009 ft | 489 kts | 201° |
| 2026-04-20 20:46 | 14.99549 | 144.78022 | 30218 ft | 492 kts | 201° |
| 2026-04-20 20:47 | 14.96329 | 144.76808 | 29319 ft | 493 kts | 200° |
| 2026-04-20 20:47 | 14.93119 | 144.75610 | 28764 ft | 487 kts | 200° |
| 2026-04-20 20:47 | 14.89947 | 144.74432 | 28167 ft | 482 kts | 200° |
| 2026-04-20 20:47 | 14.86844 | 144.73283 | 27608 ft | 477 kts | 201° |
| 2026-04-20 20:48 | 14.83734 | 144.72132 | 27049 ft | 472 kts | 201° |
| 2026-04-20 20:48 | 14.80661 | 144.70994 | 26501 ft | 467 kts | 200° |
| 2026-04-20 20:48 | 14.77614 | 144.69865 | 25958 ft | 463 kts | 201° |
| 2026-04-20 20:48 | 14.74594 | 144.68746 | 25403 ft | 459 kts | 201° |
| 2026-04-20 20:49 | 14.71591 | 144.67634 | 24846 ft | 456 kts | 201° |
| 2026-04-20 20:49 | 14.68611 | 144.66530 | 24294 ft | 453 kts | 201° |
| 2026-04-20 20:49 | 14.65650 | 144.65433 | 23750 ft | 450 kts | 201° |
| 2026-04-20 20:49 | 14.62710 | 144.64344 | 23140 ft | 447 kts | 201° |
| 2026-04-20 20:50 | 14.59796 | 144.63266 | 22555 ft | 443 kts | 201° |
| 2026-04-20 20:50 | 14.56906 | 144.62196 | 22005 ft | 438 kts | 201° |
| 2026-04-20 20:50 | 14.54054 | 144.61141 | 21471 ft | 433 kts | 201° |
| 2026-04-20 20:50 | 14.51265 | 144.60110 | 20944 ft | 429 kts | 200° |
| 2026-04-20 20:51 | 14.48467 | 144.59076 | 20420 ft | 425 kts | 201° |
| 2026-04-20 20:51 | 14.45694 | 144.58051 | 19899 ft | 421 kts | 201° |
| 2026-04-20 20:51 | 14.42944 | 144.57035 | 19363 ft | 418 kts | 201° |
| 2026-04-20 20:51 | 14.40218 | 144.56027 | 18844 ft | 414 kts | 201° |
| 2026-04-20 20:52 | 14.37508 | 144.55026 | 18324 ft | 411 kts | 201° |
| 2026-04-20 20:52 | 14.34858 | 144.54048 | 17745 ft | 408 kts | 200° |
| 2026-04-20 20:52 | 14.32195 | 144.53064 | 17210 ft | 403 kts | 200° |
| 2026-04-20 20:52 | 14.29568 | 144.52095 | 16692 ft | 399 kts | 200° |
| 2026-04-20 20:53 | 14.26964 | 144.51134 | 16197 ft | 395 kts | 200° |
| 2026-04-20 20:53 | 14.24388 | 144.50183 | 15715 ft | 390 kts | 200° |
| 2026-04-20 20:53 | 14.21841 | 144.49244 | 15228 ft | 386 kts | 200° |
| 2026-04-20 20:53 | 14.19318 | 144.48314 | 14752 ft | 383 kts | 200° |
| 2026-04-20 20:54 | 14.16819 | 144.47392 | 14270 ft | 380 kts | 200° |
| 2026-04-20 20:54 | 14.14341 | 144.46478 | 13776 ft | 377 kts | 199° |
| 2026-04-20 20:54 | 14.11877 | 144.45571 | 13230 ft | 375 kts | 199° |
| 2026-04-20 20:54 | 14.09453 | 144.44679 | 12759 ft | 371 kts | 199° |
| 2026-04-20 20:55 | 14.07029 | 144.43806 | 12260 ft | 367 kts | 196° |
| 2026-04-20 20:55 | 14.04512 | 144.43526 | 11931 ft | 360 kts | 175° |
| 2026-04-20 20:55 | 14.02048 | 144.43870 | 11449 ft | 358 kts | 170° |
| 2026-04-20 20:55 | 13.99611 | 144.44379 | 11039 ft | 355 kts | 168° |
| 2026-04-20 20:56 | 13.97241 | 144.44921 | 10876 ft | 344 kts | 168° |
| 2026-04-20 20:56 | 13.94967 | 144.45444 | 10718 ft | 334 kts | 168° |
| 2026-04-20 20:56 | 13.92731 | 144.45949 | 10572 ft | 323 kts | 168° |
| 2026-04-20 20:56 | 13.90567 | 144.46428 | 10439 ft | 314 kts | 168° |
| 2026-04-20 20:57 | 13.88461 | 144.46886 | 10304 ft | 305 kts | 169° |
| 2026-04-20 20:57 | 13.86416 | 144.47326 | 10177 ft | 296 kts | 169° |
| 2026-04-20 20:57 | 13.84423 | 144.47752 | 10061 ft | 288 kts | 169° |
| 2026-04-20 20:57 | 13.82484 | 144.48165 | 9871 ft | 283 kts | 169° |
| 2026-04-20 20:58 | 13.80554 | 144.48575 | 9570 ft | 282 kts | 169° |
| 2026-04-20 20:58 | 13.78642 | 144.48980 | 9284 ft | 280 kts | 169° |
| 2026-04-20 20:58 | 13.76740 | 144.49383 | 9003 ft | 278 kts | 169° |
| 2026-04-20 20:58 | 13.74846 | 144.49784 | 8730 ft | 277 kts | 169° |
| 2026-04-20 20:59 | 13.72986 | 144.50178 | 8426 ft | 276 kts | 169° |
| 2026-04-20 20:59 | 13.71111 | 144.50576 | 8142 ft | 275 kts | 169° |
| 2026-04-20 20:59 | 13.69241 | 144.50971 | 7870 ft | 274 kts | 169° |
| 2026-04-20 20:59 | 13.67376 | 144.51365 | 7586 ft | 274 kts | 169° |
| 2026-04-20 21:00 | 13.65508 | 144.51760 | 7295 ft | 274 kts | 168° |
| 2026-04-20 21:00 | 13.63644 | 144.52153 | 7014 ft | 273 kts | 168° |
| 2026-04-20 21:00 | 13.61781 | 144.52547 | 6738 ft | 273 kts | 168° |
| 2026-04-20 21:00 | 13.59918 | 144.52941 | 6464 ft | 272 kts | 168° |
| 2026-04-20 21:01 | 13.58062 | 144.53334 | 6180 ft | 272 kts | 168° |
| 2026-04-20 21:01 | 13.56209 | 144.53725 | 5883 ft | 272 kts | 168° |
| 2026-04-20 21:01 | 13.54355 | 144.54117 | 5607 ft | 271 kts | 168° |
| 2026-04-20 21:01 | 13.52523 | 144.54504 | 5362 ft | 266 kts | 168° |
| 2026-04-20 21:02 | 13.50733 | 144.54882 | 5062 ft | 260 kts | 168° |
| 2026-04-20 21:02 | 13.48987 | 144.55251 | 4787 ft | 253 kts | 168° |
| 2026-04-20 21:02 | 13.47293 | 144.55608 | 4545 ft | 244 kts | 168° |
| 2026-04-20 21:02 | 13.45710 | 144.56112 | 4290 ft | 234 kts | 155° |
| 2026-04-20 21:03 | 13.44285 | 144.56805 | 4069 ft | 225 kts | 153° |
| 2026-04-20 21:03 | 13.42895 | 144.57500 | 3849 ft | 219 kts | 153° |
| 2026-04-20 21:03 | 13.41553 | 144.58159 | 3719 ft | 208 kts | 153° |
| 2026-04-20 21:03 | 13.40421 | 144.58991 | 3592 ft | 196 kts | 122° |
| 2026-04-20 21:04 | 13.39981 | 144.60253 | 3533 ft | 187 kts | 92° |
| 2026-04-20 21:04 | 13.40217 | 144.61539 | 3485 ft | 183 kts | 67° |
| 2026-04-20 21:04 | 13.40729 | 144.62753 | 3431 ft | 187 kts | 64° |
| 2026-04-20 21:04 | 13.41284 | 144.63966 | 3339 ft | 188 kts | 64° |
| 2026-04-20 21:05 | 13.41841 | 144.65180 | 3180 ft | 188 kts | 63° |
| 2026-04-20 21:05 | 13.42389 | 144.66374 | 3051 ft | 180 kts | 63° |
| 2026-04-20 21:05 | 13.42919 | 144.67533 | 2843 ft | 182 kts | 63° |
| 2026-04-20 21:05 | 13.43443 | 144.68677 | 2587 ft | 176 kts | 63° |
| 2026-04-20 21:06 | 13.43953 | 144.69792 | 2358 ft | 172 kts | 63° |
| 2026-04-20 21:06 | 13.44458 | 144.70892 | 2103 ft | 168 kts | 65° |
| 2026-04-20 21:06 | 13.44949 | 144.71965 | 1853 ft | 162 kts | 65° |
| 2026-04-20 21:06 | 13.45413 | 144.72982 | 1664 ft | 148 kts | 64° |
| 2026-04-20 21:07 | 13.45851 | 144.73950 | 1447 ft | 151 kts | 64° |
| 2026-04-20 21:07 | 13.46299 | 144.74927 | 1188 ft | 151 kts | 64° |
| 2026-04-20 21:07 | 13.46741 | 144.75907 | 929 ft | 152 kts | 65° |
| 2026-04-20 21:07 | 13.47182 | 144.76891 | 691 ft | 151 kts | 60° |
| 2026-04-20 21:08 | 13.47648 | 144.77855 | 479 ft | 152 kts | 64° |
| 2026-04-20 21:08 | 13.48089 | 144.78838 | 283 ft | 147 kts | 62° |
| 2026-04-20 21:08 | 13.48481 | 144.79688 | 280 ft | 111 kts | 65° |
| 2026-04-20 21:08 | 13.48743 | 144.80262 | 294 ft | 65 kts | 65° |
| 2026-04-20 21:09 | 13.48918 | 144.80643 | 297 ft | 54 kts | 65° |
| 2026-04-20 21:09 | 13.49035 | 144.80885 | 299 ft | 16 kts | 47° |
| 2026-04-20 21:09 | 13.49130 | 144.80947 | 297 ft | 16 kts | 31° |
| 2026-04-20 21:09 | 13.49226 | 144.80996 | 300 ft | 15 kts | 22° |
| 2026-04-20 21:10 | 13.49322 | 144.81034 | 299 ft | 14 kts | 13° |
| 2026-04-20 21:10 | 13.49417 | 144.81026 | 300 ft | 14 kts | 332° |
| 2026-04-20 21:10 | 13.49500 | 144.80980 | 297 ft | 13 kts | 332° |
| 2026-04-20 21:10 | 13.49549 | 144.80913 | 296 ft | 13 kts | 257° |
| 2026-04-20 21:11 | 13.49511 | 144.80833 | 298 ft | 12 kts | 243° |
| 2026-04-20 21:11 | 13.49477 | 144.80768 | 296 ft | 9 kts | 242° |
| 2026-04-20 21:11 | 13.49466 | 144.80750 | 297 ft | 0 kts | 233° |
| 2026-04-20 21:11 | 13.49459 | 144.80742 | 297 ft | 3 kts | 218° |
| 2026-04-20 21:12 | 13.49432 | 144.80750 | 296 ft | 5 kts | 147° |
| 2026-04-20 21:12 | 13.49423 | 144.80754 | 297 ft | 0 kts | 153° |
| 2026-04-20 21:12 | 13.49420 | 144.80756 | 297 ft | 2 kts | 153° |
| 2026-04-20 21:12 | 13.49401 | 144.80766 | 298 ft | 2 kts | 153° |
| 2026-04-20 21:13 | 13.49394 | 144.80770 | 296 ft | 0 kts | 151° |